Time;durP1;ratioP1;P1;durP2;ratioP2;P2;SDS_P1;SDS_P2;PMS_P1;PMS_P2;Temp;Humidity;BMP_temperature;BMP_pressure;BME280_temperature;BME280_humidity;BME280_pressure;Samples;Min_cycle;Max_cycle;Signal;HPM_P1;HPM_P2
2023/02/04 00:01:52;;;;;;;;;;;7.00;99.90;;;;;;5087468;28;19973;-63
2023/02/04 00:04:18;;;;;;;;;;;7.00;99.90;;;;;;5086355;28;19920;-64
2023/02/04 00:06:45;;;;;;;;;;;7.00;99.90;;;;;;5084501;28;20432;-63
2023/02/04 00:09:11;;;;;;;;;;;7.00;99.90;;;;;;5086508;28;19924;-64
2023/02/04 00:11:38;;;;;;;;;;;7.00;99.90;;;;;;5086796;28;19965;-62
2023/02/04 00:14:06;;;;;;;;;;;7.00;99.90;;;;;;5084378;28;20433;-64
2023/02/04 00:16:32;;;;;;;;;;;6.90;99.90;;;;;;5085529;28;20321;-64
2023/02/04 00:18:59;;;;;;;;;;;6.80;99.90;;;;;;5085798;28;19920;-64
2023/02/04 00:21:25;;;;;;;;;;;6.90;99.90;;;;;;5086115;28;19920;-64
2023/02/04 00:23:54;;;;;;;;;;;6.90;99.90;;;;;;5086369;28;20436;-63
2023/02/04 00:26:20;;;;;;;;;;;6.80;99.90;;;;;;5080880;28;19924;-64
2023/02/04 00:28:47;;;;;;;;;;;6.90;99.90;;;;;;5086095;28;20536;-64
2023/02/04 00:31:15;;;;;;;;;;;6.90;99.90;;;;;;5084156;28;19928;-64
2023/02/04 00:33:42;;;;;;;;;;;6.90;99.90;;;;;;5085759;28;20329;-64
2023/02/04 00:36:09;;;;;;;;;;;6.80;99.90;;;;;;5086281;28;19919;-64
2023/02/04 00:38:35;;;;;;;;;;;6.90;99.90;;;;;;5080400;28;20041;-64
2023/02/04 00:41:02;;;;;;;;;;;6.70;99.90;;;;;;5085138;28;19928;-64
2023/02/04 00:43:28;;;;;;;;;;;6.80;99.90;;;;;;5086622;28;19957;-63
2023/02/04 00:45:55;;;;;;;;;;;6.60;99.90;;;;;;5084862;28;19974;-64
2023/02/04 00:48:23;;;;;;;;;;;6.60;99.90;;;;;;5086395;28;19920;-64
2023/02/04 00:50:49;;;;;;;;;;;6.50;99.90;;;;;;5082842;28;19966;-64
2023/02/04 00:53:16;;;;;;;;;;;6.70;99.90;;;;;;5085276;28;19977;-64
2023/02/04 00:55:42;;;;;;;;;;;6.70;99.90;;;;;;5083553;28;20375;-64
2023/02/04 00:58:09;;;;;;;;;;;6.70;99.90;;;;;;5085389;28;19920;-64
2023/02/04 01:00:36;;;;;;;;;;;6.60;99.90;;;;;;5082921;28;19928;-63
2023/02/04 01:03:02;;;;;;;;;;;6.70;99.90;;;;;;5085925;28;19920;-64
2023/02/04 01:05:30;;;;;;;;;;;6.70;99.90;;;;;;5084921;28;19973;-64
2023/02/04 01:07:58;;;;;;;;;;;6.70;99.90;;;;;;5082600;28;21313;-64
2023/02/04 01:10:25;;;;;;;;;;;6.70;99.90;;;;;;5085538;28;19977;-64
2023/02/04 01:12:52;;;;;;;;;;;6.80;99.90;;;;;;5085988;28;19924;-63
2023/02/04 01:15:18;;;;;;;;;;;6.80;99.90;;;;;;5083773;28;19924;-64
2023/02/04 01:17:45;;;;;;;;;;;6.90;99.90;;;;;;5083772;28;19970;-64
2023/02/04 01:20:12;;;;;;;;;;;6.90;99.90;;;;;;5082534;28;20007;-63
2023/02/04 01:22:39;;;;;;;;;;;6.80;99.90;;;;;;5084881;28;19924;-64
2023/02/04 01:25:07;;;;;;;;;;;6.80;99.90;;;;;;5085557;28;19970;-63
2023/02/04 01:27:33;;;;;;;;;;;6.80;99.90;;;;;;5084847;28;19954;-64
2023/02/04 01:30:00;;;;;;;;;;;6.90;99.90;;;;;;5083440;28;19969;-63
2023/02/04 01:32:26;;;;;;;;;;;6.90;99.90;;;;;;5082911;28;19928;-64
2023/02/04 01:34:53;;;;;;;;;;;7.00;99.90;;;;;;5084617;28;20382;-64
2023/02/04 01:37:19;;;;;;;;;;;6.90;99.90;;;;;;5085547;28;19969;-65
2023/02/04 01:39:47;;;;;;;;;;;6.90;99.90;;;;;;5079561;28;19924;-64
2023/02/04 01:42:14;;;;;;;;;;;7.00;99.90;;;;;;5083666;28;19986;-64
2023/02/04 01:44:40;;;;;;;;;;;7.10;99.90;;;;;;5085163;28;20390;-63
2023/02/04 01:47:07;;;;;;;;;;;6.90;99.90;;;;;;5083897;28;20330;-64
2023/02/04 01:49:33;;;;;;;;;;;6.80;99.90;;;;;;5083224;28;19986;-64
2023/02/04 01:52:00;;;;;;;;;;;6.80;99.90;;;;;;5079092;28;20330;-64
2023/02/04 01:54:27;;;;;;;;;;;6.80;99.90;;;;;;5083383;28;20387;-63
2023/02/04 01:56:55;;;;;;;;;;;6.90;99.90;;;;;;5084401;28;19964;-64
2023/02/04 01:59:21;;;;;;;;;;;7.00;99.90;;;;;;5083729;28;20397;-64
2023/02/04 02:01:49;;;;;;;;;;;7.10;99.90;;;;;;5085036;28;19924;-64
2023/02/04 02:04:16;;;;;;;;;;;7.10;99.90;;;;;;5082979;28;19970;-64
2023/02/04 02:06:45;;;;;;;;;;;7.00;99.90;;;;;;5083088;28;19924;-63
2023/02/04 02:09:12;;;;;;;;;;;7.00;99.90;;;;;;5084858;28;19927;-64
2023/02/04 02:11:38;;;;;;;;;;;7.00;99.90;;;;;;5082892;28;20394;-64
2023/02/04 02:14:06;;;;;;;;;;;6.90;99.90;;;;;;5082134;28;19924;-63
2023/02/04 02:16:33;;;;;;;;;;;7.00;99.90;;;;;;5083717;28;19924;-63
2023/02/04 02:18:59;;;;;;;;;;;7.00;99.90;;;;;;5082236;28;19924;-64
2023/02/04 02:21:31;;;;;;;;;;;6.80;99.90;;;;;;5084527;28;19977;-64
2023/02/04 02:23:59;;;;;;;;;;;6.80;99.90;;;;;;5084070;28;19924;-64
2023/02/04 02:26:26;;;;;;;;;;;6.90;99.90;;;;;;5077979;28;20446;-64
2023/02/04 02:28:53;;;;;;;;;;;7.00;99.90;;;;;;5085323;28;19932;-64
2023/02/04 02:31:21;;;;;;;;;;;7.00;99.90;;;;;;5081971;28;19924;-63
2023/02/04 02:33:47;;;;;;;;;;;7.10;99.90;;;;;;5083576;28;19969;-63
2023/02/04 02:36:14;;;;;;;;;;;7.00;99.90;;;;;;5084119;28;19978;-63
2023/02/04 02:38:41;;;;;;;;;;;7.00;99.90;;;;;;5078431;28;20329;-64
2023/02/04 02:41:09;;;;;;;;;;;7.10;99.90;;;;;;5082527;28;19994;-63
2023/02/04 02:43:36;;;;;;;;;;;7.10;99.90;;;;;;5084412;28;19924;-62
2023/02/04 02:46:03;;;;;;;;;;;7.10;99.90;;;;;;5082849;28;19985;-63
2023/02/04 02:48:29;;;;;;;;;;;7.20;99.90;;;;;;5083403;28;19928;-64
2023/02/04 02:50:56;;;;;;;;;;;7.10;99.90;;;;;;5082032;28;19925;-63
2023/02/04 02:53:22;;;;;;;;;;;7.10;99.90;;;;;;5082170;28;19925;-63
2023/02/04 02:55:49;;;;;;;;;;;7.10;99.90;;;;;;5083943;28;19932;-64
2023/02/04 02:58:20;;;;;;;;;;;7.20;99.90;;;;;;5082374;28;20539;-63
2023/02/04 03:00:46;;;;;;;;;;;7.20;99.90;;;;;;5083340;28;19927;-62
2023/02/04 03:03:16;;;;;;;;;;;7.10;99.90;;;;;;5082185;28;19928;-64
2023/02/04 03:05:44;;;;;;;;;;;7.10;99.90;;;;;;5081212;28;19925;-63
2023/02/04 03:08:12;;;;;;;;;;;7.20;99.90;;;;;;5082947;28;20014;-64
2023/02/04 03:10:39;;;;;;;;;;;7.20;99.90;;;;;;5083638;28;19964;-63
2023/02/04 03:13:05;;;;;;;;;;;7.20;99.90;;;;;;5081425;28;19931;-64
2023/02/04 03:15:33;;;;;;;;;;;7.20;99.90;;;;;;5082657;28;20333;-63
2023/02/04 03:18:00;;;;;;;;;;;7.10;99.90;;;;;;5083345;28;19924;-64
2023/02/04 03:20:28;;;;;;;;;;;6.90;99.90;;;;;;5082872;28;20015;-63
2023/02/04 03:22:55;;;;;;;;;;;6.90;99.90;;;;;;5082348;28;19931;-63
2023/02/04 03:25:23;;;;;;;;;;;6.70;99.90;;;;;;5077972;28;19924;-64
2023/02/04 03:27:50;;;;;;;;;;;6.90;99.90;;;;;;5083916;28;19928;-63
2023/02/04 03:30:17;;;;;;;;;;;7.00;99.90;;;;;;5080707;28;19924;-63
2023/02/04 03:32:45;;;;;;;;;;;7.00;99.90;;;;;;5082107;28;19970;-64
2023/02/04 03:35:11;;;;;;;;;;;7.10;99.90;;;;;;5080858;28;19932;-64
2023/02/04 03:37:38;;;;;;;;;;;7.20;99.90;;;;;;5082830;28;19928;-63
2023/02/04 03:40:05;;;;;;;;;;;7.20;99.90;;;;;;5082799;28;19924;-63
2023/02/04 03:42:31;;;;;;;;;;;7.20;99.90;;;;;;5080848;28;19929;-63
2023/02/04 03:44:58;;;;;;;;;;;7.10;99.90;;;;;;5082198;28;19931;-63
2023/02/04 03:47:24;;;;;;;;;;;7.00;99.90;;;;;;5083511;28;19924;-63
2023/02/04 03:49:52;;;;;;;;;;;7.10;99.90;;;;;;5079848;28;19931;-63
2023/02/04 03:52:19;;;;;;;;;;;7.10;99.90;;;;;;5082858;28;19931;-64
2023/02/04 03:54:46;;;;;;;;;;;7.10;99.90;;;;;;5080856;28;20011;-63
2023/02/04 03:57:14;;;;;;;;;;;7.10;99.90;;;;;;5082463;28;19924;-63
2023/02/04 03:59:41;;;;;;;;;;;7.00;99.90;;;;;;5079397;28;19924;-63
2023/02/04 04:02:07;;;;;;;;;;;7.10;99.90;;;;;;5082387;28;19939;-62
2023/02/04 04:04:34;;;;;;;;;;;7.10;99.90;;;;;;5082995;28;19954;-64
2023/02/04 04:07:02;;;;;;;;;;;7.10;99.90;;;;;;5083207;28;19925;-63
2023/02/04 04:09:28;;;;;;;;;;;7.10;99.90;;;;;;5082021;28;20340;-63
2023/02/04 04:11:55;;;;;;;;;;;7.10;99.90;;;;;;5080725;28;19925;-63
2023/02/04 04:14:21;;;;;;;;;;;7.00;99.90;;;;;;5082426;28;20062;-63
2023/02/04 04:16:48;;;;;;;;;;;7.10;99.90;;;;;;5076424;28;19978;-62
2023/02/04 04:19:14;;;;;;;;;;;7.00;99.90;;;;;;5080915;28;19928;-64
2023/02/04 04:21:41;;;;;;;;;;;6.90;99.90;;;;;;5081920;28;19986;-64
2023/02/04 04:24:09;;;;;;;;;;;6.90;99.90;;;;;;5082021;28;19924;-63
2023/02/04 04:26:35;;;;;;;;;;;6.80;99.90;;;;;;5079646;28;19931;-63
2023/02/04 04:29:02;;;;;;;;;;;6.80;99.90;;;;;;5082851;28;19985;-63
2023/02/04 04:31:28;;;;;;;;;;;6.90;99.90;;;;;;5080274;28;20333;-64
2023/02/04 04:33:55;;;;;;;;;;;6.80;99.90;;;;;;5082804;28;19932;-63
2023/02/04 04:36:21;;;;;;;;;;;6.80;99.90;;;;;;5086632;28;19924;-64
2023/02/04 04:38:48;;;;;;;;;;;6.80;99.90;;;;;;5084541;28;19924;-64
2023/02/04 04:41:16;;;;;;;;;;;6.90;99.90;;;;;;5084545;28;20453;-63
2023/02/04 04:43:42;;;;;;;;;;;6.90;99.90;;;;;;5086308;28;19927;-64
2023/02/04 04:46:09;;;;;;;;;;;7.00;99.90;;;;;;5083057;28;19977;-63
2023/02/04 04:48:35;;;;;;;;;;;7.10;99.90;;;;;;5082412;28;19940;-63
2023/02/04 04:51:02;;;;;;;;;;;7.10;99.90;;;;;;5084277;28;20337;-64
2023/02/04 04:53:28;;;;;;;;;;;7.20;99.90;;;;;;5084272;28;20043;-63
2023/02/04 04:55:55;;;;;;;;;;;7.00;99.90;;;;;;5085967;28;19931;-63
2023/02/04 04:58:23;;;;;;;;;;;7.10;99.90;;;;;;5085750;28;19928;-64
2023/02/04 05:00:49;;;;;;;;;;;7.20;99.90;;;;;;5085798;28;19924;-63
2023/02/04 05:03:16;;;;;;;;;;;7.20;99.90;;;;;;5084089;28;20379;-64
2023/02/04 05:05:43;;;;;;;;;;;7.10;99.90;;;;;;5084220;28;19970;-63
2023/02/04 05:08:12;;;;;;;;;;;7.10;99.90;;;;;;5086117;28;19985;-63
2023/02/04 05:10:39;;;;;;;;;;;7.10;99.90;;;;;;5085062;28;19928;-64
2023/02/04 05:13:05;;;;;;;;;;;7.10;99.90;;;;;;5083325;28;19924;-63
2023/02/04 05:15:33;;;;;;;;;;;7.10;99.90;;;;;;5084844;28;19928;-63
2023/02/04 05:18:00;;;;;;;;;;;7.10;99.90;;;;;;5084242;28;19928;-63
2023/02/04 05:20:26;;;;;;;;;;;6.90;99.90;;;;;;5079650;28;19931;-63
2023/02/04 05:22:54;;;;;;;;;;;6.90;99.90;;;;;;5084285;28;20390;-64
2023/02/04 05:25:21;;;;;;;;;;;7.00;99.90;;;;;;5085334;28;19927;-64
2023/02/04 05:27:48;;;;;;;;;;;7.10;99.90;;;;;;5082845;28;19931;-63
2023/02/04 05:30:14;;;;;;;;;;;7.10;99.90;;;;;;5083001;28;19928;-63
2023/02/04 05:32:42;;;;;;;;;;;7.00;99.90;;;;;;5079699;28;20441;-64
2023/02/04 05:35:09;;;;;;;;;;;7.10;99.90;;;;;;5083520;28;19924;-64
2023/02/04 05:37:36;;;;;;;;;;;7.10;99.90;;;;;;5085505;28;19969;-62
2023/02/04 05:40:04;;;;;;;;;;;7.10;99.90;;;;;;5084040;28;19924;-63
2023/02/04 05:42:30;;;;;;;;;;;7.10;99.90;;;;;;5082553;28;19925;-63
2023/02/04 05:44:57;;;;;;;;;;;7.20;99.90;;;;;;5084479;28;19924;-63
2023/02/04 05:47:23;;;;;;;;;;;7.20;99.90;;;;;;5084493;28;19924;-63
2023/02/04 05:49:51;;;;;;;;;;;7.20;99.90;;;;;;5082184;28;19924;-64
2023/02/04 05:52:18;;;;;;;;;;;7.20;99.90;;;;;;5084057;28;19925;-63
2023/02/04 05:54:44;;;;;;;;;;;7.30;99.90;;;;;;5082498;28;20394;-62
2023/02/04 05:57:11;;;;;;;;;;;7.30;99.90;;;;;;5083541;28;19958;-64
2023/02/04 05:59:37;;;;;;;;;;;7.30;99.90;;;;;;5082773;28;19928;-65
2023/02/04 06:02:04;;;;;;;;;;;7.40;99.90;;;;;;5084943;28;19950;-64
2023/02/04 06:04:30;;;;;;;;;;;7.30;99.90;;;;;;5083469;28;19978;-60
2023/02/04 06:06:58;;;;;;;;;;;7.30;99.90;;;;;;5082517;28;19931;-64
2023/02/04 06:09:25;;;;;;;;;;;7.30;99.90;;;;;;5078368;28;19931;-64
2023/02/04 06:11:51;;;;;;;;;;;7.40;99.90;;;;;;5081125;28;20359;-64
2023/02/04 06:14:18;;;;;;;;;;;7.30;99.90;;;;;;5084990;28;19978;-63
2023/02/04 06:16:44;;;;;;;;;;;7.30;99.90;;;;;;5082728;28;19978;-63
2023/02/04 06:19:12;;;;;;;;;;;7.30;99.90;;;;;;5085826;28;19928;-62
2023/02/04 06:21:39;;;;;;;;;;;7.30;99.90;;;;;;5078968;28;20419;-62
2023/02/04 06:24:07;;;;;;;;;;;7.20;99.90;;;;;;5082686;28;19970;-64
2023/02/04 06:26:33;;;;;;;;;;;7.20;99.90;;;;;;5084646;28;19924;-64
2023/02/04 06:29:00;;;;;;;;;;;7.20;99.90;;;;;;5083220;28;20401;-64
2023/02/04 06:31:26;;;;;;;;;;;7.10;99.90;;;;;;5082351;28;20306;-63
2023/02/04 06:33:53;;;;;;;;;;;7.00;99.90;;;;;;5084633;28;19954;-64
2023/02/04 06:36:19;;;;;;;;;;;7.10;99.90;;;;;;5083574;28;19924;-63
2023/02/04 06:38:46;;;;;;;;;;;7.20;99.90;;;;;;5081572;28;19978;-64
2023/02/04 06:41:14;;;;;;;;;;;7.20;99.90;;;;;;5083390;28;20383;-64
2023/02/04 06:43:40;;;;;;;;;;;7.20;99.90;;;;;;5084242;28;19931;-64
2023/02/04 06:46:07;;;;;;;;;;;7.10;99.90;;;;;;5081841;28;19924;-64
2023/02/04 06:48:33;;;;;;;;;;;7.00;99.90;;;;;;5082301;28;19928;-64
2023/02/04 06:51:00;;;;;;;;;;;7.10;99.90;;;;;;5081428;28;20375;-64
2023/02/04 06:53:26;;;;;;;;;;;7.20;99.90;;;;;;5083389;28;19978;-63
2023/02/04 06:55:53;;;;;;;;;;;7.20;99.90;;;;;;5084090;28;19924;-63
2023/02/04 06:58:21;;;;;;;;;;;7.10;99.90;;;;;;5079353;28;19924;-62
2023/02/04 07:00:47;;;;;;;;;;;7.20;99.90;;;;;;5083261;28;19981;-64
2023/02/04 07:03:14;;;;;;;;;;;7.20;99.90;;;;;;5081301;28;19970;-63
2023/02/04 07:05:40;;;;;;;;;;;7.20;99.90;;;;;;5082805;28;19928;-64
2023/02/04 07:08:07;;;;;;;;;;;7.20;99.90;;;;;;5083847;28;19924;-64
2023/02/04 07:10:34;;;;;;;;;;;7.30;99.90;;;;;;5077845;28;19928;-64
2023/02/04 07:13:00;;;;;;;;;;;7.40;99.90;;;;;;5082366;28;19982;-63
2023/02/04 07:15:28;;;;;;;;;;;7.40;99.90;;;;;;5083756;28;19924;-61
2023/02/04 07:17:54;;;;;;;;;;;7.40;99.90;;;;;;5083857;28;19924;-62
2023/02/04 07:20:21;;;;;;;;;;;7.50;99.90;;;;;;5079819;28;20390;-62
2023/02/04 07:22:47;;;;;;;;;;;7.50;99.90;;;;;;5077646;28;19977;-60
2023/02/04 07:25:16;;;;;;;;;;;7.50;99.90;;;;;;5081968;28;19929;-62
2023/02/04 07:27:43;;;;;;;;;;;7.50;99.90;;;;;;5083643;28;19925;-62
2023/02/04 07:30:10;;;;;;;;;;;7.60;99.90;;;;;;5082623;28;19924;-61
2023/02/04 07:32:38;;;;;;;;;;;7.50;99.90;;;;;;5083359;28;19978;-61
2023/02/04 07:35:05;;;;;;;;;;;7.60;99.90;;;;;;5081282;28;19928;-62
2023/02/04 07:37:32;;;;;;;;;;;7.60;99.90;;;;;;5081482;28;19929;-62
2023/02/04 07:39:58;;;;;;;;;;;7.60;99.90;;;;;;5083452;28;19970;-62
2023/02/04 07:42:25;;;;;;;;;;;7.50;99.90;;;;;;5082016;28;20407;-60
2023/02/04 07:44:51;;;;;;;;;;;7.50;99.90;;;;;;5080540;28;20395;-62
2023/02/04 07:47:18;;;;;;;;;;;7.50;99.90;;;;;;5082840;28;19970;-62
2023/02/04 07:49:46;;;;;;;;;;;7.50;99.90;;;;;;5081808;28;19928;-62
2023/02/04 07:52:12;;;;;;;;;;;7.50;99.90;;;;;;5083514;28;19928;-63
2023/02/04 07:54:39;;;;;;;;;;;7.60;99.90;;;;;;5081728;28;19939;-63
2023/02/04 07:57:05;;;;;;;;;;;7.50;99.90;;;;;;5080949;28;19978;-61
2023/02/04 07:59:32;;;;;;;;;;;7.50;99.90;;;;;;5081290;28;19969;-63
2023/02/04 08:01:58;;;;;;;;;;;7.50;99.90;;;;;;5082198;28;19973;-62
2023/02/04 08:04:25;;;;;;;;;;;7.50;99.90;;;;;;5080530;28;20369;-63
2023/02/04 08:06:53;;;;;;;;;;;7.50;99.90;;;;;;5082296;28;19924;-62
2023/02/04 08:09:19;;;;;;;;;;;7.50;99.90;;;;;;5085061;28;19931;-63
2023/02/04 08:11:46;;;;;;;;;;;7.40;99.90;;;;;;5085176;28;19928;-63
2023/02/04 08:14:12;;;;;;;;;;;7.40;99.90;;;;;;5085173;28;19975;-62
2023/02/04 08:16:39;;;;;;;;;;;7.60;99.90;;;;;;5086951;28;19927;-63
2023/02/04 08:19:06;;;;;;;;;;;7.60;99.90;;;;;;5083575;28;20023;-61
2023/02/04 08:21:32;;;;;;;;;;;7.70;99.90;;;;;;5086810;28;20405;-63
2023/02/04 08:24:00;;;;;;;;;;;7.70;99.90;;;;;;5081337;28;19970;-63
2023/02/04 08:26:26;;;;;;;;;;;7.70;99.90;;;;;;5085075;28;19931;-62
2023/02/04 08:28:53;;;;;;;;;;;7.70;99.90;;;;;;5084630;28;19924;-63
2023/02/04 08:31:19;;;;;;;;;;;7.70;99.90;;;;;;5085438;28;20057;-63
2023/02/04 08:33:46;;;;;;;;;;;7.60;99.90;;;;;;5086587;28;19928;-62
2023/02/04 08:36:13;;;;;;;;;;;7.50;99.90;;;;;;5080713;28;19924;-63
2023/02/04 08:38:40;;;;;;;;;;;7.50;99.90;;;;;;5085469;28;20370;-63
2023/02/04 08:41:08;;;;;;;;;;;7.40;99.90;;;;;;5086634;28;19924;-63
2023/02/04 08:43:35;;;;;;;;;;;7.50;99.90;;;;;;5085342;28;19928;-61
2023/02/04 08:46:02;;;;;;;;;;;7.70;99.90;;;;;;5083794;28;19928;-63
2023/02/04 08:48:28;;;;;;;;;;;7.70;99.90;;;;;;5084018;28;19931;-61
2023/02/04 08:50:55;;;;;;;;;;;7.80;99.90;;;;;;5084713;28;19993;-63
2023/02/04 08:53:21;;;;;;;;;;;7.80;99.90;;;;;;5086194;28;19985;-63
2023/02/04 08:55:48;;;;;;;;;;;7.70;99.90;;;;;;5084682;28;19928;-63
2023/02/04 08:58:16;;;;;;;;;;;7.50;99.90;;;;;;5085634;28;19928;-62
2023/02/04 09:00:42;;;;;;;;;;;7.50;99.90;;;;;;5083347;28;19929;-63
2023/02/04 09:03:09;;;;;;;;;;;7.60;99.90;;;;;;5084351;28;20323;-62
2023/02/04 09:05:35;;;;;;;;;;;7.60;99.90;;;;;;5086140;28;20271;-63
2023/02/04 09:08:02;;;;;;;;;;;7.50;99.90;;;;;;5084597;28;19958;-62
2023/02/04 09:10:28;;;;;;;;;;;7.60;99.90;;;;;;5083682;28;19925;-62
2023/02/04 09:12:55;;;;;;;;;;;7.80;99.90;;;;;;5080306;28;19927;-62
2023/02/04 09:15:23;;;;;;;;;;;7.80;99.90;;;;;;5084031;28;20466;-62
2023/02/04 09:17:52;;;;;;;;;;;7.80;99.90;;;;;;5086166;28;19932;-62
2023/02/04 09:20:19;;;;;;;;;;;7.90;99.90;;;;;;5080884;28;20416;-62
2023/02/04 09:22:46;;;;;;;;;;;7.80;99.90;;;;;;5085875;28;19928;-61
2023/02/04 09:25:13;;;;;;;;;;;7.80;99.90;;;;;;5084497;28;19924;-62
2023/02/04 09:27:40;;;;;;;;;;;7.60;99.90;;;;;;5086465;28;19925;-62
2023/02/04 09:30:06;;;;;;;;;;;7.50;99.90;;;;;;5085692;28;19927;-62
2023/02/04 09:32:34;;;;;;;;;;;7.70;99.90;;;;;;5084697;28;19986;-63
2023/02/04 09:35:01;;;;;;;;;;;7.90;99.90;;;;;;5083336;28;19924;-63
2023/02/04 09:37:28;;;;;;;;;;;8.10;99.90;;;;;;5085235;28;19981;-62
2023/02/04 09:39:54;;;;;;;;;;;8.20;99.90;;;;;;5085815;28;19960;-62
2023/02/04 09:42:23;;;;;;;;;;;8.00;99.90;;;;;;5083348;28;19970;-62
2023/02/04 09:44:49;;;;;;;;;;;8.10;99.90;;;;;;5084041;28;20337;-63
2023/02/04 09:47:17;;;;;;;;;;;7.80;99.90;;;;;;5085321;28;19984;-62
2023/02/04 09:49:45;;;;;;;;;;;7.70;99.90;;;;;;5083144;28;19932;-63
2023/02/04 09:52:13;;;;;;;;;;;7.80;99.90;;;;;;5085460;28;19932;-61
2023/02/04 09:54:39;;;;;;;;;;;7.90;99.90;;;;;;5083438;28;19928;-64
2023/02/04 09:57:11;;;;;;;;;;;8.10;99.90;;;;;;5086380;28;19924;-64
2023/02/04 09:59:38;;;;;;;;;;;8.30;99.90;;;;;;5058041;28;19974;-63
2023/02/04 10:02:05;;;;;;;;;;;8.30;99.90;;;;;;5078435;28;19924;-62
2023/02/04 10:04:32;;;;;;;;;;;8.10;99.90;;;;;;5085646;28;19931;-63
2023/02/04 10:07:00;;;;;;;;;;;8.20;99.90;;;;;;5082574;28;19924;-62
2023/02/04 10:09:26;;;;;;;;;;;8.30;99.90;;;;;;5077455;28;19924;-64
2023/02/04 10:11:53;;;;;;;;;;;8.10;99.90;;;;;;5080629;28;19924;-62
2023/02/04 10:14:21;;;;;;;;;;;8.20;99.90;;;;;;5082509;28;19925;-63
2023/02/04 10:16:50;;;;;;;;;;;8.20;99.90;;;;;;5078042;28;19932;-63
2023/02/04 10:19:17;;;;;;;;;;;8.30;99.90;;;;;;5081571;28;19924;-61
2023/02/04 10:21:44;;;;;;;;;;;8.30;99.90;;;;;;5074185;28;19928;-62
2023/02/04 10:24:13;;;;;;;;;;;8.10;99.90;;;;;;5077741;28;19939;-62
2023/02/04 10:26:40;;;;;;;;;;;8.00;99.90;;;;;;5079245;28;19928;-64
2023/02/04 10:29:07;;;;;;;;;;;7.90;99.90;;;;;;5077803;28;19936;-65
2023/02/04 10:31:36;;;;;;;;;;;8.10;99.90;;;;;;5075636;28;19932;-64
2023/02/04 10:34:03;;;;;;;;;;;8.20;99.90;;;;;;5078702;28;20072;-62
2023/02/04 10:36:30;;;;;;;;;;;8.20;99.90;;;;;;5082016;28;20264;-62
2023/02/04 10:39:00;;;;;;;;;;;8.20;99.90;;;;;;5083188;28;19928;-64
2023/02/04 10:41:28;;;;;;;;;;;8.40;99.90;;;;;;5082958;28;19932;-64
2023/02/04 10:43:55;;;;;;;;;;;8.60;99.90;;;;;;5081666;28;19924;-63
2023/02/04 10:46:22;;;;;;;;;;;8.70;99.90;;;;;;5082540;28;20414;-63
2023/02/04 10:48:48;;;;;;;;;;;8.70;99.90;;;;;;5083009;28;19924;-61
2023/02/04 10:51:15;;;;;;;;;;;8.30;99.90;;;;;;5077771;28;19925;-62
2023/02/04 10:56:25;;;;;;;;;;;7.90;99.90;;;;;;5080535;28;19931;-61
2023/02/04 10:58:53;;;;;;;;;;;8.10;99.90;;;;;;5076406;28;19928;-62
2023/02/04 11:01:19;;;;;;;;;;;8.40;99.90;;;;;;5079512;28;19928;-63
2023/02/04 11:03:47;;;;;;;;;;;8.60;99.90;;;;;;5083657;28;19931;-63
2023/02/04 11:06:17;;;;;;;;;;;8.60;99.90;;;;;;5081308;28;19978;-63
2023/02/04 11:08:44;;;;;;;;;;;8.30;99.90;;;;;;5080668;28;19924;-63
2023/02/04 11:11:15;;;;;;;;;;;8.40;99.90;;;;;;5080798;28;19968;-63
2023/02/04 11:13:43;;;;;;;;;;;8.60;99.90;;;;;;5081174;28;20363;-62
2023/02/04 11:16:12;;;;;;;;;;;8.70;99.90;;;;;;5083090;28;20410;-63
2023/02/04 11:18:46;;;;;;;;;;;8.90;99.90;;;;;;5082948;28;19925;-63
2023/02/04 11:21:23;;;;;;;;;;;9.10;98.50;;;;;;5078572;28;19925;-62
2023/02/04 11:23:49;;;;;;;;;;;9.10;74.90;;;;;;5080834;28;19925;-61
2023/02/04 11:26:18;;;;;;;;;;;9.20;80.30;;;;;;5082070;28;19928;-62
2023/02/04 11:28:46;;;;;;;;;;;9.30;80.50;;;;;;5081848;28;19966;-62
2023/02/04 11:31:25;;;;;;;;;;;9.50;79.10;;;;;;5082240;28;19928;-62
2023/02/04 11:34:03;;;;;;;;;;;9.60;71.00;;;;;;5077763;28;19924;-60
2023/02/04 11:36:29;;;;;;;;;;;9.30;40.50;;;;;;5080450;28;20038;-61
2023/02/04 11:39:06;;;;;;;;;;;9.20;48.10;;;;;;5081768;28;19932;-62
2023/02/04 11:41:33;;;;;;;;;;;9.20;55.80;;;;;;5077345;28;20364;-67
2023/02/04 11:43:59;;;;;;;;;;;9.30;52.60;;;;;;5080454;28;19929;-65
2023/02/04 11:46:28;;;;;;;;;;;9.50;90.30;;;;;;5082790;28;20426;-66
2023/02/04 11:48:55;;;;;;;;;;;9.70;59.90;;;;;;5079828;28;19928;-65
2023/02/04 11:51:25;;;;;;;;;;;10.00;38.10;;;;;;5082670;28;19936;-65
2023/02/04 11:53:52;;;;;;;;;;;10.20;41.60;;;;;;5081389;28;19935;-64
2023/02/04 11:56:20;;;;;;;;;;;10.40;1.00;;;;;;5079762;28;19933;-62
2023/02/04 11:58:47;;;;;;;;;;;10.40;1.00;;;;;;5078330;28;19975;-62
2023/02/04 12:01:17;;;;;;;;;;;10.30;1.00;;;;;;5081185;28;19976;-62
2023/02/04 12:03:47;;;;;;;;;;;10.20;1.00;;;;;;5082561;28;19924;-61
2023/02/04 12:06:20;;;;;;;;;;;10.10;1.00;;;;;;5081927;28;19924;-63
2023/02/04 12:08:46;;;;;;;;;;;10.00;1.00;;;;;;5076933;28;19939;-63
2023/02/04 12:11:26;;;;;;;;;;;9.80;1.00;;;;;;5080875;28;19924;-61
2023/02/04 12:13:54;;;;;;;;;;;9.80;2.50;;;;;;5079449;28;19928;-63
2023/02/04 12:16:21;;;;;;;;;;;9.80;1.00;;;;;;5079803;28;19932;-63
2023/02/04 12:18:48;;;;;;;;;;;9.60;9.10;;;;;;5079571;28;20684;-63
2023/02/04 12:21:15;;;;;;;;;;;9.70;1.00;;;;;;5080342;28;19932;-62
2023/02/04 12:23:42;;;;;;;;;;;9.70;1.00;;;;;;5076627;28;19935;-64
2023/02/04 12:26:09;;;;;;;;;;;9.50;10.00;;;;;;5080433;28;19970;-62
2023/02/04 12:28:35;;;;;;;;;;;9.60;16.50;;;;;;5082860;28;19929;-62
2023/02/04 12:31:02;;;;;;;;;;;9.70;15.60;;;;;;5081557;28;19994;-64
2023/02/04 12:33:28;;;;;;;;;;;9.70;1.00;;;;;;5082775;28;19947;-62
2023/02/04 12:35:56;;;;;;;;;;;9.70;1.00;;;;;;5082238;28;19924;-61
2023/02/04 12:38:23;;;;;;;;;;;9.50;1.00;;;;;;5078973;28;19925;-61
2023/02/04 12:40:49;;;;;;;;;;;9.20;2.00;;;;;;5082432;28;19930;-59
2023/02/04 12:43:16;;;;;;;;;;;9.20;13.10;;;;;;5080775;28;19928;-63
2023/02/04 12:45:45;;;;;;;;;;;9.30;23.00;;;;;;5079952;28;19924;-60
2023/02/04 12:48:12;;;;;;;;;;;9.20;22.20;;;;;;5078767;28;19931;-61
2023/02/04 12:50:39;;;;;;;;;;;8.90;49.40;;;;;;5081506;28;19978;-59
2023/02/04 12:53:06;;;;;;;;;;;9.10;48.80;;;;;;5079590;28;19929;-63
2023/02/04 12:55:33;;;;;;;;;;;9.20;36.40;;;;;;5082756;28;19924;-65
2023/02/04 12:57:59;;;;;;;;;;;9.30;27.30;;;;;;5082105;28;19924;-64
2023/02/04 13:00:26;;;;;;;;;;;9.20;33.80;;;;;;5082610;28;19937;-64
2023/02/04 13:02:54;;;;;;;;;;;9.20;30.70;;;;;;5084931;28;20346;-64
2023/02/04 13:05:21;;;;;;;;;;;9.30;28.00;;;;;;5083252;28;20016;-64
2023/02/04 13:07:47;;;;;;;;;;;9.30;25.00;;;;;;5083982;28;19928;-65
2023/02/04 13:10:15;;;;;;;;;;;9.20;30.40;;;;;;5085552;28;19927;-64
2023/02/04 13:12:42;;;;;;;;;;;9.20;24.00;;;;;;5084079;28;19946;-64
2023/02/04 13:15:09;;;;;;;;;;;9.30;27.20;;;;;;5083417;28;20312;-64
2023/02/04 13:17:36;;;;;;;;;;;9.30;5.70;;;;;;5078962;28;20310;-64
2023/02/04 13:20:04;;;;;;;;;;;9.20;8.10;;;;;;5085497;28;20311;-64
2023/02/04 13:22:30;;;;;;;;;;;9.40;3.20;;;;;;5082595;28;19924;-65
2023/02/04 13:24:57;;;;;;;;;;;9.50;1.00;;;;;;5084414;28;19924;-64
2023/02/04 13:27:26;;;;;;;;;;;9.60;1.00;;;;;;5085053;28;19931;-62
2023/02/04 13:29:53;;;;;;;;;;;9.70;1.00;;;;;;5079615;28;19928;-62
2023/02/04 13:32:19;;;;;;;;;;;9.80;1.00;;;;;;5083711;28;19987;-65
2023/02/04 13:34:46;;;;;;;;;;;9.90;1.00;;;;;;5085228;28;19928;-64
2023/02/04 13:37:12;;;;;;;;;;;9.90;1.00;;;;;;5083196;28;19928;-65
2023/02/04 13:39:39;;;;;;;;;;;10.00;1.00;;;;;;5082191;28;19932;-63
2023/02/04 13:42:05;;;;;;;;;;;10.10;1.00;;;;;;5079185;28;20015;-63
2023/02/04 13:44:33;;;;;;;;;;;10.10;1.00;;;;;;5083804;28;20006;-63
2023/02/04 13:47:00;;;;;;;;;;;10.10;1.00;;;;;;5085478;28;19928;-65
2023/02/04 13:49:26;;;;;;;;;;;10.10;1.00;;;;;;5087253;28;19982;-65
2023/02/04 13:51:53;;;;;;;;;;;10.00;1.00;;;;;;5082412;28;19928;-65
2023/02/04 13:54:19;;;;;;;;;;;9.50;1.00;;;;;;5078547;28;20423;-62
2023/02/04 13:56:46;;;;;;;;;;;9.60;1.00;;;;;;5083060;28;20387;-61
2023/02/04 13:59:12;;;;;;;;;;;9.40;1.00;;;;;;5084108;28;19935;-62
2023/02/04 14:01:40;;;;;;;;;;;9.50;1.00;;;;;;5082618;28;19932;-61
2023/02/04 14:04:07;;;;;;;;;;;9.60;1.00;;;;;;5081870;28;19924;-62
2023/02/04 14:06:36;;;;;;;;;;;9.50;1.00;;;;;;5077641;28;19924;-62
2023/02/04 14:09:04;;;;;;;;;;;9.60;1.00;;;;;;5081851;28;19931;-62
2023/02/04 14:11:30;;;;;;;;;;;9.70;1.00;;;;;;5084254;28;19924;-62
2023/02/04 14:13:57;;;;;;;;;;;9.70;1.00;;;;;;5083022;28;19925;-59
2023/02/04 14:16:23;;;;;;;;;;;9.70;1.00;;;;;;5081583;28;19928;-58
2023/02/04 14:18:51;;;;;;;;;;;9.70;1.00;;;;;;5081691;28;20505;-58
2023/02/04 14:21:18;;;;;;;;;;;9.70;1.00;;;;;;5081823;28;19954;-58
2023/02/04 14:23:44;;;;;;;;;;;9.50;1.00;;;;;;5084330;28;19924;-58
2023/02/04 14:26:11;;;;;;;;;;;9.30;1.00;;;;;;5082879;28;19931;-59
2023/02/04 14:28:38;;;;;;;;;;;9.40;1.00;;;;;;5078719;28;19932;-62
2023/02/04 14:31:04;;;;;;;;;;;9.50;1.00;;;;;;5083192;28;19974;-60
2023/02/04 14:33:31;;;;;;;;;;;9.50;1.00;;;;;;5083744;28;19924;-59